Aviation Digital Data Service (ADDS)

Output produced by METARs form (0310 UTC 17 January 2018)
found at http://www.aviationweather.gov/adds/metars/
 
KJAN 170254Z 34013KT 10SM SCT250 M08/M13 A3063 RMK AO2 SLP376 T10781133 51017
KJAN 170154Z 32011KT 10SM BKN120 M08/M13 A3061 RMK AO2 SLP370 T10781133
KJAN 170054Z 33009G17KT 10SM BKN120 M07/M12 A3061 RMK AO2 SLP369 T10721122
KJAN 162354Z 35010KT 10SM OVC090 M07/M11 A3058 RMK AO2 SLP358 60002 T10671111 11050 21067 53007
KJAN 162254Z 33011KT 10SM OVC080 M06/M11 A3057 RMK AO2 SLP355 T10611106
KJAN 162154Z 33011KT 10SM FEW018 OVC075 M06/M09 A3056 RMK AO2 SNE10 SLP352 P0000 T10611094
KJAN 162124Z 35014KT 10SM FEW017 OVC080 M06/M09 A3055 RMK AO2 SNE10 P0000 T10611094
KJAN 162116Z 34016G20KT 10SM BKN017 OVC075 M06/M09 A3056 RMK AO2 SNE10 P0000 T10611094
KJAN 162054Z 33014KT 2SM -SN BR BKN016 OVC039 M06/M09 A3056 RMK AO2 SFC VIS 5 SLP351 P0001 60002 T10611089 55011
KJAN 162046Z 33011KT 2SM -SN BR BKN015 OVC039 M06/M08 A3056 RMK AO2 SFC VIS 5 P0000 T10611083
KJAN 162016Z 34012KT 1SM -SN BR BKN015 OVC035 M06/M08 A3056 RMK AO2 TWR VIS 2 P0000 T10561083 RVRNO $
KJAN 162007Z 34012KT 2SM -SN BR BKN015 BKN030 OVC042 M06/M08 A3056 RMK AO2 P0000 T10561078
KJAN 162000Z 34014KT 2SM -SN BR SCT015 BKN030 OVC050 M06/M08 A3056 RMK AO2 P0000 T10561078
KJAN 161954Z 33014KT 1 1/2SM -SN BR SCT015 BKN028 OVC050 M06/M08 A3055 RMK AO2 TWR VIS 2 SLP348 P0001 T10561078
KJAN 161901Z 34010KT 1SM -SN BR SCT014 BKN022 OVC030 M05/M07 A3057 RMK AO2 TWR VIS 2 P0000 T10501072 RVRNO
KJAN 161854Z 34013KT 1SM -SN BR BKN014 OVC028 M05/M07 A3057 RMK AO2 TWR VIS 2 SNE18B29 SLP356 P0000 T10501072 RVRNO
KJAN 161842Z COR 33011KT 2SM -SN BR SCT016 BKN037 OVC048 M05/M08 A3058 RMK AO2 SNE18B29 P0000 T10501078
KJAN 161832Z 34008KT 2SM -SN BR BKN015 BKN039 OVC048 M05/M07 A3058 RMK AO2 SNE18B29 P0000 T10501072
KJAN 161821Z 34012KT 2SM BR BKN015 BKN043 OVC050 M05/M07 A3059 RMK AO2 SNE18 P0000 T10501072
KJAN 161754Z 32009KT 2SM -SN BR BKN013 BKN026 OVC065 M05/M07 A3059 RMK AO2 SLP362 P0001 60002 T10501072 11006 21050 50008
KJAN 161730Z 34010KT 2SM -SN BR FEW015 BKN028 OVC036 M04/M07 A3060 RMK AO2 P0001 T10441067
KJAN 161654Z 35010KT 1SM -SN BR SCT013 OVC022 M04/M07 A3061 RMK AO2 SLP369 P0001 T10441067 RVRNO
KJAN 161622Z 34013KT 1SM -SN BR SCT011 BKN028 OVC042 M04/M06 A3061 RMK AO2 P0001 T10441061 RVRNO
KJAN 161554Z 33014KT 1 1/2SM -SN BR BKN011 BKN017 OVC039 M04/M06 A3060 RMK AO2 SLP366 P0000 T10391056
KJAN 161545Z 34013G20KT 1 3/4SM -SN BR BKN014 OVC040 M04/M06 A3060 RMK AO2 P0000 T10391056
KJAN 161539Z 33011G17KT 2 1/2SM -SN BR BKN013 OVC040 M03/M06 A3060 RMK AO2 P0000 T10331056
KJAN 161527Z 35013KT 3SM -SN BR BKN014 BKN038 OVC055 M03/M06 A3058 RMK AO2 P0000 T10331056
KJAN 161454Z COR 35010KT 5SM -SN BR BKN014 BKN022 OVC070 M03/M05 A3057 RMK AO2 SNB50 SLP353 P0000 60000 T10281050 51016
KJAN 161451Z COR 35011KT 5SM -SN BR BKN014 OVC070 M03/M05 A3056 RMK AO2 SNB50 P0000
KJAN 161449Z 35011KT 9SM BKN014 BKN023 OVC070 M02/M05 A3056 RMK AO2 SNB10E31 P0000
KJAN 161354Z 35013KT 10SM OVC015 M02/M04 A3055 RMK AO2 SLP345 T10171044
KJAN 161254Z 34013KT 10SM OVC012 M01/M04 A3052 RMK AO2 SLP336 T10111039
KJAN 161154Z 34012G20KT 10SM OVC012 M01/M03 A3048 RMK AO2 SLP324 T10061028 10028 21011 51031 $
KJAN 161054Z AUTO 35013KT 10SM OVC011 01/M02 A3045 RMK AO2 SLP313 T00061017 $
KJAN 161027Z AUTO 33011G18KT 10SM BKN014 OVC065 02/M01 A3045 RMK AO2 T00171011 $
KJAN 161018Z AUTO 34011KT 10SM BKN016 OVC065 02/M01 A3044 RMK AO2 T00221006 $
KJAN 160954Z AUTO 36009KT 10SM FEW016 OVC065 03/00 A3042 RMK AO2 SLP303 T00280000 $
KJAN 160854Z AUTO 36011KT 10SM OVC060 03/M01 A3039 RMK AO2 SLP292 T00281011 52014 $
KJAN 160754Z AUTO 35011KT 10SM OVC055 03/M01 A3039 RMK AO2 SLP293 T00281011 $
KJAN 160654Z AUTO 00000KT 10SM CLR 00/M03 A3034 RMK AO2 SLP276 T00001028 $
KJAN 160554Z AUTO 36003KT 10SM CLR M01/M02 A3035 RMK AO2 SLP278 T10061022 10061 21006 401391050 57004 $
KJAN 160454Z 15009KT 10SM CLR 01/M02 A3034 RMK AO2 SLP276 T00111022 $
KJAN 160354Z 00000KT 10SM CLR 00/M02 A3036 RMK AO2 SLP284 T00001022 $
KJAN 160254Z 00000KT 10SM CLR 02/M02 A3036 RMK AO2 SLP283 T00171017 53005 $
KJAN 160154Z 36003KT 10SM CLR 03/M01 A3035 RMK AO2 SLP279 T00281011 $
KJAN 160054Z 00000KT 10SM CLR 04/M02 A3034 RMK AO2 SLP278 T00391017 $
KJAN 152354Z 00000KT 10SM CLR 04/M02 A3035 RMK AO2 SLP278 T00441022 10139 20044 53007 $
KJAN 152254Z 18004KT 10SM CLR 11/M04 A3034 RMK AO2 SLP274 T01061039 $
KJAN 152154Z 19004KT 10SM CLR 13/M04 A3033 RMK AO2 SLP271 T01281044 $
KJAN 152054Z 19005KT 10SM CLR 13/M05 A3032 RMK AO2 SLP269 T01281050 56026 $
KJAN 151954Z 27008KT 10SM CLR 13/M04 A3034 RMK AO2 SLP276 T01281044 $
KJAN 151854Z 18005KT 10SM CLR 12/M06 A3036 RMK AO2 SLP282 T01221056 $
KJAN 151754Z 22007KT 170V240 10SM CLR 11/M06 A3040 RMK AO2 SLP296 T01111061 10111 21050 58011 $
KJAN 151654Z VRB04KT 10SM CLR 09/M06 A3044 RMK AO2 SLP309 T00941056 $
KJAN 151554Z 17004KT 10SM CLR 06/M04 A3044 RMK AO2 SLP311 T00611039 $
KJAN 151454Z 17007KT 10SM CLR 02/M03 A3043 RMK AO2 SLP308 T00221028 51008 $
KJAN 151354Z 18004KT 10SM CLR M02/M04 A3043 RMK AO2 SLP308 T10171039 $
KJAN 151254Z 00000KT 10SM CLR M04/M06 A3042 RMK AO2 SLP305 T10441061 $
KJAN 151154Z 00000KT 10SM CLR M04/M06 A3041 RMK AO2 SLP301 T10441061 11022 21050 51000 $
KJAN 151054Z AUTO 00000KT 10SM CLR M04/M07 A3041 RMK AO2 SLP299 T10441067 $
KJAN 150954Z AUTO 00000KT 10SM CLR M04/M06 A3042 RMK AO2 SLP302 T10441061 $
KJAN 150854Z AUTO 00000KT 10SM CLR M03/M06 A3041 RMK AO2 SLP299 T10331056 56009 $
KJAN 150754Z AUTO 00000KT 10SM CLR M04/M06 A3041 RMK AO2 SLP300 T10391061 $
KJAN 150654Z AUTO 00000KT 10SM CLR M03/M06 A3042 RMK AO2 SLP303 T10331056 $
KJAN 150554Z AUTO 00000KT 10SM CLR M03/M06 A3044 RMK AO2 SLP309 T10331056 10028 21033 400671061 56004 $
KJAN 150454Z 00000KT 10SM CLR M03/M05 A3044 RMK AO2 SLP311 T10331050 $
KJAN 150354Z 00000KT 10SM CLR M02/M06 A3044 RMK AO2 SLP310 T10171056 $
KJAN 150254Z 00000KT 10SM CLR M01/M05 A3045 RMK AO2 SLP313 T10111050 55007 $
KJAN 150154Z 00000KT 10SM BKN120 00/M04 A3044 RMK AO2 SLP310 T00001044 $
KJAN 150054Z 00000KT 10SM BKN100 BKN120 02/M06 A3046 RMK AO2 SLP316 T00221056 $
KJAN 142354Z 08003KT 10SM SCT095 03/M07 A3047 RMK AO2 SLP321 T00281067 10067 20028 58007 $
KJAN 142254Z 04004KT 10SM OVC110 04/M09 A3048 RMK AO2 SLP325 T00441089 $
KJAN 142154Z COR 05006KT 10SM BKN150 05/M12 A3048 RMK AO2 SLP325 T00501122 $
KJAN 142054Z VRB03KT 10SM SCT150 BKN250 06/M11 A3049 RMK AO2 SLP327 T00611106 56025 $
KJAN 141954Z VRB03KT 10SM BKN150 04/M11 A3050 RMK AO2 SLP331 T00441106 $
KJAN 141854Z 01004KT 10SM BKN150 03/M09 A3053 RMK AO2 SLP341 T00331094 $
KJAN 141754Z VRB05KT 10SM BKN150 03/M10 A3057 RMK AO2 SLP353 T00281100 10039 21056 58013 $
KJAN 141654Z 33005KT 10SM FEW150 02/M10 A3059 RMK AO2 SLP361 T00221100 $
KJAN 141554Z 10003KT 10SM FEW150 M01/M10 A3060 RMK AO2 SLP366 T10111100 $
KJAN 141454Z 03005KT 10SM CLR M03/M09 A3060 RMK AO2 SLP367 T10281089 53012 $
KJAN 141354Z 05006KT 10SM CLR M05/M09 A3058 RMK AO2 SLP361 T10501089 $
KJAN 141254Z 03006KT 10SM CLR M06/M09 A3058 RMK AO2 SLP359 T10561094 $
KJAN 141154Z 04007KT 10SM CLR M05/M09 A3057 RMK AO2 SLP356 T10501089 11044 21061 51004 $
KJAN 141054Z AUTO 01005KT 10SM CLR M05/M07 A3057 RMK AO2 SLP355 T10501072 $
KJAN 140954Z AUTO 33004KT 10SM CLR M06/M08 A3057 RMK AO2 SLP355 T10561078 $
KJAN 140854Z AUTO 03005KT 10SM CLR M05/M08 A3056 RMK AO2 SLP350 T10501083 58006 $
KJAN 140754Z AUTO 01006KT 10SM CLR M04/M07 A3057 RMK AO2 SLP354 T10441072 $
KJAN 140654Z AUTO 36006KT 10SM CLR M05/M07 A3056 RMK AO2 SLP353 T10501072 $
KJAN 140554Z AUTO 34005KT 10SM CLR M05/M07 A3057 RMK AO2 SLP356 T10501072 11028 21056 400111056 58007 $
KJAN 140454Z 35006KT 10SM CLR M05/M07 A3058 RMK AO2 SLP358 T10501072 $
KJAN 140354Z 35007KT 10SM CLR M05/M07 A3060 RMK AO2 SLP365 T10501072 $